sensor_id;sensor_type;location;lat;lon;timestamp;pressure;altitude;pressure_sealevel;temperature;humidity
70015;BME280;57358;51.094;6.760;2022-12-16T00:02:23;100378.94;;;-10.81;100.00
70015;BME280;57358;51.094;6.760;2022-12-16T00:04:49;100565.50;;;-9.71;100.00
70015;BME280;57358;51.094;6.760;2022-12-16T00:07:16;100561.34;;;-9.69;100.00
70015;BME280;57358;51.094;6.760;2022-12-16T00:09:42;100489.84;;;-10.15;100.00
70015;BME280;57358;51.094;6.760;2022-12-16T00:12:08;100559.59;;;-9.70;100.00
70015;BME280;57358;51.094;6.760;2022-12-16T00:14:35;100567.16;;;-9.73;100.00
70015;BME280;57358;51.094;6.760;2022-12-16T00:17:01;100306.41;;;-11.36;100.00
70015;BME280;57358;51.094;6.760;2022-12-16T00:19:28;100557.84;;;-9.73;100.00
70015;BME280;57358;51.094;6.760;2022-12-16T00:21:54;100479.41;;;-10.26;100.00
70015;BME280;57358;51.094;6.760;2022-12-16T00:24:20;100465.81;;;-10.28;100.00
70015;BME280;57358;51.094;6.760;2022-12-16T00:26:47;100553.28;;;-9.85;100.00
70015;BME280;57358;51.094;6.760;2022-12-16T00:29:14;100399.47;;;-11.00;100.00
70015;BME280;57358;51.094;6.760;2022-12-16T00:31:40;100516.06;;;-10.14;100.00
70015;BME280;57358;51.094;6.760;2022-12-16T00:34:06;100572.91;;;-9.79;100.00
70015;BME280;57358;51.094;6.760;2022-12-16T00:36:33;100410.59;;;-10.68;100.00
70015;BME280;57358;51.094;6.760;2022-12-16T00:38:59;100570.50;;;-9.74;100.00
70015;BME280;57358;51.094;6.760;2022-12-16T00:41:26;100414.03;;;-10.65;100.00
70015;BME280;57358;51.094;6.760;2022-12-16T00:43:52;100531.28;;;-9.86;100.00
70015;BME280;57358;51.094;6.760;2022-12-16T00:46:19;100405.03;;;-10.55;100.00
70015;BME280;57358;51.094;6.760;2022-12-16T00:48:46;100356.28;;;-10.75;100.00
70015;BME280;57358;51.094;6.760;2022-12-16T00:51:12;100489.19;;;-10.08;100.00
70015;BME280;57358;51.094;6.760;2022-12-16T00:53:39;100558.44;;;-9.51;100.00
70015;BME280;57358;51.094;6.760;2022-12-16T00:56:10;100561.03;;;-9.48;100.00
70015;BME280;57358;51.094;6.760;2022-12-16T00:58:37;100510.38;;;-9.75;100.00
70015;BME280;57358;51.094;6.760;2022-12-16T01:01:04;100514.56;;;-9.77;100.00
70015;BME280;57358;51.094;6.760;2022-12-16T01:03:31;100564.47;;;-9.46;100.00
70015;BME280;57358;51.094;6.760;2022-12-16T01:05:58;100469.97;;;-9.99;100.00
70015;BME280;57358;51.094;6.760;2022-12-16T01:08:25;100558.66;;;-9.42;100.00
70015;BME280;57358;51.094;6.760;2022-12-16T01:10:55;100558.72;;;-9.40;100.00
70015;BME280;57358;51.094;6.760;2022-12-16T01:13:23;100523.00;;;-9.78;100.00
70015;BME280;57358;51.094;6.760;2022-12-16T01:15:50;100561.19;;;-9.44;100.00
70015;BME280;57358;51.094;6.760;2022-12-16T01:18:17;100491.91;;;-10.01;100.00
70015;BME280;57358;51.094;6.760;2022-12-16T01:20:44;100559.75;;;-9.66;100.00
70015;BME280;57358;51.094;6.760;2022-12-16T01:23:11;100576.16;;;-9.53;100.00
70015;BME280;57358;51.094;6.760;2022-12-16T01:25:37;100579.44;;;-9.57;100.00
70015;BME280;57358;51.094;6.760;2022-12-16T01:28:03;100592.84;;;-9.63;100.00
70015;BME280;57358;51.094;6.760;2022-12-16T01:30:30;100459.47;;;-10.44;100.00
70015;BME280;57358;51.094;6.760;2022-12-16T01:32:56;100532.25;;;-10.11;100.00
70015;BME280;57358;51.094;6.760;2022-12-16T01:35:23;100516.53;;;-10.28;100.00
70015;BME280;57358;51.094;6.760;2022-12-16T01:38:09;100607.50;;;-9.84;100.00
70015;BME280;57358;51.094;6.760;2022-12-16T01:40:35;100525.59;;;-10.37;100.00
70015;BME280;57358;51.094;6.760;2022-12-16T01:43:10;100559.00;;;-10.22;100.00
70015;BME280;57358;51.094;6.760;2022-12-16T01:45:37;100370.75;;;-11.30;100.00
70015;BME280;57358;51.094;6.760;2022-12-16T01:48:17;100554.84;;;-10.20;100.00
70015;BME280;57358;51.094;6.760;2022-12-16T01:50:47;100605.81;;;-9.84;100.00
70015;BME280;57358;51.094;6.760;2022-12-16T01:53:15;100595.59;;;-9.85;100.00
70015;BME280;57358;51.094;6.760;2022-12-16T01:55:45;100611.72;;;-9.83;100.00
70015;BME280;57358;51.094;6.760;2022-12-16T01:58:22;100570.00;;;-10.21;100.00
70015;BME280;57358;51.094;6.760;2022-12-16T02:00:49;100496.72;;;-10.70;100.00
70015;BME280;57358;51.094;6.760;2022-12-16T02:03:16;100612.22;;;-9.95;100.00
70015;BME280;57358;51.094;6.760;2022-12-16T02:05:43;100615.31;;;-10.05;100.00
70015;BME280;57358;51.094;6.760;2022-12-16T02:08:15;100613.78;;;-10.00;100.00
70015;BME280;57358;51.094;6.760;2022-12-16T02:16:27;100596.88;;;-10.28;100.00
70015;BME280;57358;51.094;6.760;2022-12-16T02:19:08;100614.47;;;-10.06;100.00
70015;BME280;57358;51.094;6.760;2022-12-16T02:41:42;100567.78;;;-10.68;100.00
70015;BME280;57358;51.094;6.760;2022-12-16T02:44:15;100548.31;;;-10.95;100.00
70015;BME280;57358;51.094;6.760;2022-12-16T02:46:59;100496.16;;;-11.15;100.00
70015;BME280;57358;51.094;6.760;2022-12-16T02:51:52;100639.09;;;-10.30;100.00
70015;BME280;57358;51.094;6.760;2022-12-16T02:54:19;100637.41;;;-10.31;100.00
70015;BME280;57358;51.094;6.760;2022-12-16T02:56:53;100645.78;;;-10.34;100.00
70015;BME280;57358;51.094;6.760;2022-12-16T02:59:43;100643.19;;;-10.35;100.00
70015;BME280;57358;51.094;6.760;2022-12-16T03:02:22;100640.59;;;-10.37;100.00
70015;BME280;57358;51.094;6.760;2022-12-16T03:05:31;100638.06;;;-10.37;100.00
70015;BME280;57358;51.094;6.760;2022-12-16T03:07:59;100642.22;;;-10.39;100.00
70015;BME280;57358;51.094;6.760;2022-12-16T03:10:31;100649.84;;;-10.39;100.00
70015;BME280;57358;51.094;6.760;2022-12-16T03:13:01;100516.94;;;-11.26;100.00
70015;BME280;57358;51.094;6.760;2022-12-16T03:15:30;100642.88;;;-10.45;100.00
70015;BME280;57358;51.094;6.760;2022-12-16T03:18:01;100573.56;;;-10.98;100.00
70015;BME280;57358;51.094;6.760;2022-12-16T03:20:52;100655.38;;;-10.51;100.00
70015;BME280;57358;51.094;6.760;2022-12-16T03:23:25;100581.72;;;-10.81;100.00
70015;BME280;57358;51.094;6.760;2022-12-16T03:25:56;100645.53;;;-10.41;100.00
70015;BME280;57358;51.094;6.760;2022-12-16T03:28:27;100641.38;;;-10.39;100.00
70015;BME280;57358;51.094;6.760;2022-12-16T03:31:05;100564.69;;;-10.85;100.00
70015;BME280;57358;51.094;6.760;2022-12-16T03:33:44;100571.06;;;-10.71;100.00
70015;BME280;57358;51.094;6.760;2022-12-16T03:36:32;100635.66;;;-10.32;100.00
70015;BME280;57358;51.094;6.760;2022-12-16T03:39:00;100515.84;;;-11.07;100.00
70015;BME280;57358;51.094;6.760;2022-12-16T03:41:29;100540.56;;;-10.99;100.00
70015;BME280;57358;51.094;6.760;2022-12-16T03:43:57;100558.00;;;-10.83;100.00
70015;BME280;57358;51.094;6.760;2022-12-16T03:46:24;100649.22;;;-10.32;100.00
70015;BME280;57358;51.094;6.760;2022-12-16T03:48:51;100555.91;;;-10.95;100.00
70015;BME280;57358;51.094;6.760;2022-12-16T03:51:18;100646.69;;;-10.32;100.00
70015;BME280;57358;51.094;6.760;2022-12-16T03:54:02;100559.72;;;-10.82;100.00
70015;BME280;57358;51.094;6.760;2022-12-16T03:56:28;100636.16;;;-10.44;100.00
70015;BME280;57358;51.094;6.760;2022-12-16T03:58:55;100641.22;;;-10.44;100.00
70015;BME280;57358;51.094;6.760;2022-12-16T04:01:21;100637.00;;;-10.44;100.00
70015;BME280;57358;51.094;6.760;2022-12-16T04:03:49;100588.72;;;-10.74;100.00
70015;BME280;57358;51.094;6.760;2022-12-16T04:06:15;100664.38;;;-10.33;100.00
70015;BME280;57358;51.094;6.760;2022-12-16T04:08:44;100583.97;;;-10.90;100.00
70015;BME280;57358;51.094;6.760;2022-12-16T04:11:29;100534.25;;;-11.12;100.00
70015;BME280;57358;51.094;6.760;2022-12-16T04:14:14;100570.59;;;-10.85;100.00
70015;BME280;57358;51.094;6.760;2022-12-16T04:16:59;100582.56;;;-10.80;100.00
70015;BME280;57358;51.094;6.760;2022-12-16T04:19:45;100660.13;;;-10.34;100.00
70015;BME280;57358;51.094;6.760;2022-12-16T04:22:42;100554.72;;;-11.06;100.00
70015;BME280;57358;51.094;6.760;2022-12-16T04:25:30;100666.94;;;-10.33;100.00
70015;BME280;57358;51.094;6.760;2022-12-16T04:28:14;100634.03;;;-10.57;100.00
70015;BME280;57358;51.094;6.760;2022-12-16T04:30:41;100556.25;;;-11.11;100.00
70015;BME280;57358;51.094;6.760;2022-12-16T04:33:12;100671.03;;;-10.37;100.00
70015;BME280;57358;51.094;6.760;2022-12-16T04:35:59;100673.50;;;-10.38;100.00
70015;BME280;57358;51.094;6.760;2022-12-16T04:38:44;100656.19;;;-10.52;100.00
70015;BME280;57358;51.094;6.760;2022-12-16T04:41:29;100591.59;;;-10.89;100.00
70015;BME280;57358;51.094;6.760;2022-12-16T04:44:32;100672.72;;;-10.37;100.00
70015;BME280;57358;51.094;6.760;2022-12-16T04:47:17;100679.50;;;-10.36;100.00
70015;BME280;57358;51.094;6.760;2022-12-16T04:50:02;100674.94;;;-10.47;100.00
70015;BME280;57358;51.094;6.760;2022-12-16T04:52:51;100676.75;;;-10.44;100.00
70015;BME280;57358;51.094;6.760;2022-12-16T04:55:37;100635.91;;;-10.77;100.00
70015;BME280;57358;51.094;6.760;2022-12-16T04:58:29;100705.78;;;-10.34;100.00
70015;BME280;57358;51.094;6.760;2022-12-16T05:01:32;100630.66;;;-10.84;100.00
70015;BME280;57358;51.094;6.760;2022-12-16T05:04:17;100650.53;;;-10.70;100.00
70015;BME280;57358;51.094;6.760;2022-12-16T05:07:02;100572.81;;;-11.21;100.00
70015;BME280;57358;51.094;6.760;2022-12-16T05:09:47;100660.69;;;-10.70;100.00
70015;BME280;57358;51.094;6.760;2022-12-16T05:12:32;100661.16;;;-10.80;100.00
70015;BME280;57358;51.094;6.760;2022-12-16T05:15:17;100729.25;;;-10.41;100.00
70015;BME280;57358;51.094;6.760;2022-12-16T05:18:08;100716.44;;;-10.45;100.00
70015;BME280;57358;51.094;6.760;2022-12-16T05:20:53;100633.63;;;-10.95;100.00
70015;BME280;57358;51.094;6.760;2022-12-16T05:23:38;100712.25;;;-10.44;100.00
70015;BME280;57358;51.094;6.760;2022-12-16T05:26:23;100632.78;;;-10.96;100.00
70015;BME280;57358;51.094;6.760;2022-12-16T05:29:08;100680.78;;;-10.75;100.00
70015;BME280;57358;51.094;6.760;2022-12-16T05:31:52;100704.06;;;-10.61;100.00
70015;BME280;57358;51.094;6.760;2022-12-16T05:34:55;100612.63;;;-11.17;100.00
70015;BME280;57358;51.094;6.760;2022-12-16T05:37:40;100624.75;;;-11.08;100.00
70015;BME280;57358;51.094;6.760;2022-12-16T05:40:25;100728.91;;;-10.51;100.00
70015;BME280;57358;51.094;6.760;2022-12-16T05:43:10;100737.28;;;-10.53;100.00
70015;BME280;57358;51.094;6.760;2022-12-16T05:45:56;100718.22;;;-10.68;100.00
70015;BME280;57358;51.094;6.760;2022-12-16T05:48:41;100475.06;;;-12.15;100.00
70015;BME280;57358;51.094;6.760;2022-12-16T05:51:26;100708.81;;;-10.96;100.00
70015;BME280;57358;51.094;6.760;2022-12-16T05:54:11;100660.19;;;-11.34;100.00
70015;BME280;57358;51.094;6.760;2022-12-16T05:56:56;100767.94;;;-10.71;100.00
70015;BME280;57358;51.094;6.760;2022-12-16T05:59:41;100710.25;;;-11.02;100.00
70015;BME280;57358;51.094;6.760;2022-12-16T06:02:26;100670.09;;;-11.40;100.00
70015;BME280;57358;51.094;6.760;2022-12-16T06:05:14;100781.88;;;-10.84;100.00
70015;BME280;57358;51.094;6.760;2022-12-16T06:07:59;100475.41;;;-12.75;100.00
70015;BME280;57358;51.094;6.760;2022-12-16T06:10:44;100771.59;;;-11.11;100.00
70015;BME280;57358;51.094;6.760;2022-12-16T06:13:29;100803.28;;;-11.00;100.00
70015;BME280;57358;51.094;6.760;2022-12-16T06:16:14;100800.19;;;-10.91;100.00
70015;BME280;57358;51.094;6.760;2022-12-16T06:18:59;100805.13;;;-10.94;100.00
70015;BME280;57358;51.094;6.760;2022-12-16T06:21:44;100806.75;;;-10.96;100.00
70015;BME280;57358;51.094;6.760;2022-12-16T06:24:29;100712.34;;;-11.61;100.00
70015;BME280;57358;51.094;6.760;2022-12-16T06:27:14;100686.78;;;-11.68;100.00
70015;BME280;57358;51.094;6.760;2022-12-16T06:29:59;100721.38;;;-11.46;100.00
70015;BME280;57358;51.094;6.760;2022-12-16T06:32:43;100697.94;;;-11.63;100.00
70015;BME280;57358;51.094;6.760;2022-12-16T06:35:29;100785.66;;;-11.19;100.00
70015;BME280;57358;51.094;6.760;2022-12-16T06:38:13;100776.28;;;-11.22;100.00
70015;BME280;57358;51.094;6.760;2022-12-16T06:40:58;100773.00;;;-11.19;100.00
70015;BME280;57358;51.094;6.760;2022-12-16T06:43:43;100813.41;;;-11.00;100.00
70015;BME280;57358;51.094;6.760;2022-12-16T06:46:36;100818.63;;;-10.95;100.00
70015;BME280;57358;51.094;6.760;2022-12-16T06:49:22;100786.56;;;-11.17;100.00
70015;BME280;57358;51.094;6.760;2022-12-16T06:52:07;100849.81;;;-10.98;100.00
70015;BME280;57358;51.094;6.760;2022-12-16T06:54:52;100775.53;;;-11.42;100.00
70015;BME280;57358;51.094;6.760;2022-12-16T06:57:37;100841.06;;;-11.06;100.00
70015;BME280;57358;51.094;6.760;2022-12-16T07:00:22;100841.84;;;-11.07;100.00
70015;BME280;57358;51.094;6.760;2022-12-16T07:03:07;100833.25;;;-11.11;100.00
70015;BME280;57358;51.094;6.760;2022-12-16T07:05:58;100844.38;;;-11.07;100.00
70015;BME280;57358;51.094;6.760;2022-12-16T07:08:43;100841.84;;;-11.07;100.00
70015;BME280;57358;51.094;6.760;2022-12-16T07:11:27;100843.22;;;-10.93;100.00
70015;BME280;57358;51.094;6.760;2022-12-16T07:14:12;100848.81;;;-10.79;100.00
70015;BME280;57358;51.094;6.760;2022-12-16T07:16:57;100846.31;;;-10.77;100.00
70015;BME280;57358;51.094;6.760;2022-12-16T07:19:43;100837.53;;;-10.87;100.00
70015;BME280;57358;51.094;6.760;2022-12-16T07:22:27;100870.84;;;-10.76;100.00
70015;BME280;57358;51.094;6.760;2022-12-16T07:25:17;100883.28;;;-10.84;100.00
70015;BME280;57358;51.094;6.760;2022-12-16T07:28:03;100884.06;;;-10.85;100.00
70015;BME280;57358;51.094;6.760;2022-12-16T07:30:48;100865.56;;;-11.05;100.00
70015;BME280;57358;51.094;6.760;2022-12-16T07:33:33;100609.69;;;-12.66;100.00
70015;BME280;57358;51.094;6.760;2022-12-16T07:36:20;100900.50;;;-10.98;100.00
70015;BME280;57358;51.094;6.760;2022-12-16T07:39:07;100906.53;;;-10.94;100.00
70015;BME280;57358;51.094;6.760;2022-12-16T07:41:53;100908.41;;;-10.90;100.00
70015;BME280;57358;51.094;6.760;2022-12-16T07:44:38;100924.38;;;-10.91;100.00
70015;BME280;57358;51.094;6.760;2022-12-16T07:47:23;100923.63;;;-10.89;100.00
70015;BME280;57358;51.094;6.760;2022-12-16T07:50:08;100795.81;;;-11.63;100.00
70015;BME280;57358;51.094;6.760;2022-12-16T07:52:54;100841.00;;;-11.30;100.00
70015;BME280;57358;51.094;6.760;2022-12-16T07:55:39;100926.63;;;-10.76;100.00
70015;BME280;57358;51.094;6.760;2022-12-16T07:58:25;100924.22;;;-10.73;100.00
70015;BME280;57358;51.094;6.760;2022-12-16T08:01:10;100927.00;;;-10.67;100.00
70015;BME280;57358;51.094;6.760;2022-12-16T08:03:55;100854.34;;;-11.12;100.00
70015;BME280;57358;51.094;6.760;2022-12-16T08:06:40;100715.28;;;-11.96;100.00
70015;BME280;57358;51.094;6.760;2022-12-16T08:09:25;100854.41;;;-11.10;100.00
70015;BME280;57358;51.094;6.760;2022-12-16T08:12:10;100910.22;;;-10.64;100.00
70015;BME280;57358;51.094;6.760;2022-12-16T08:14:55;100945.84;;;-10.38;100.00
70015;BME280;57358;51.094;6.760;2022-12-16T08:17:50;100947.78;;;-10.29;100.00
70015;BME280;57358;51.094;6.760;2022-12-16T08:20:35;100867.00;;;-10.67;100.00
70015;BME280;57358;51.094;6.760;2022-12-16T08:23:21;100941.66;;;-10.12;100.00
70015;BME280;57358;51.094;6.760;2022-12-16T08:26:06;100927.63;;;-10.02;100.00
70015;BME280;57358;51.094;6.760;2022-12-16T08:28:51;100853.47;;;-10.43;100.00
70015;BME280;57358;51.094;6.760;2022-12-16T08:32:07;100872.50;;;-10.30;100.00
70015;BME280;57358;51.094;6.760;2022-12-16T08:34:51;100951.81;;;-9.88;100.00
70015;BME280;57358;51.094;6.760;2022-12-16T08:37:36;100892.88;;;-10.03;100.00
70015;BME280;57358;51.094;6.760;2022-12-16T08:40:21;100951.28;;;-9.53;100.00
70015;BME280;57358;51.094;6.760;2022-12-16T08:43:08;100919.56;;;-9.65;100.00
70015;BME280;57358;51.094;6.760;2022-12-16T08:45:54;100959.41;;;-9.38;100.00
70015;BME280;57358;51.094;6.760;2022-12-16T08:48:40;100905.34;;;-9.59;100.00
70015;BME280;57358;51.094;6.760;2022-12-16T08:51:35;100872.66;;;-9.76;100.00
70015;BME280;57358;51.094;6.760;2022-12-16T08:54:20;100900.28;;;-9.59;100.00
70015;BME280;57358;51.094;6.760;2022-12-16T08:57:05;100986.72;;;-9.05;100.00
70015;BME280;57358;51.094;6.760;2022-12-16T08:59:50;100996.38;;;-8.95;100.00
70015;BME280;57358;51.094;6.760;2022-12-16T09:02:35;100986.38;;;-8.89;100.00
70015;BME280;57358;51.094;6.760;2022-12-16T09:05:21;100996.16;;;-8.75;100.00
70015;BME280;57358;51.094;6.760;2022-12-16T09:08:06;100927.16;;;-9.13;100.00
70015;BME280;57358;51.094;6.760;2022-12-16T09:10:51;100977.50;;;-8.74;100.00
70015;BME280;57358;51.094;6.760;2022-12-16T09:13:36;100997.59;;;-8.55;100.00
70015;BME280;57358;51.094;6.760;2022-12-16T09:16:21;101015.94;;;-8.36;100.00
70015;BME280;57358;51.094;6.760;2022-12-16T09:19:06;101013.69;;;-8.27;100.00
70015;BME280;57358;51.094;6.760;2022-12-16T09:21:51;101018.25;;;-8.15;100.00
70015;BME280;57358;51.094;6.760;2022-12-16T09:24:36;101014.16;;;-8.10;100.00
70015;BME280;57358;51.094;6.760;2022-12-16T09:27:21;100991.16;;;-8.13;100.00
70015;BME280;57358;51.094;6.760;2022-12-16T09:30:07;101028.50;;;-7.84;100.00
70015;BME280;57358;51.094;6.760;2022-12-16T09:32:52;100911.44;;;-8.43;100.00
70015;BME280;57358;51.094;6.760;2022-12-16T09:35:37;101021.47;;;-7.60;100.00
70015;BME280;57358;51.094;6.760;2022-12-16T09:38:22;101034.50;;;-7.50;100.00
70015;BME280;57358;51.094;6.760;2022-12-16T09:41:26;101034.84;;;-7.37;100.00
70015;BME280;57358;51.094;6.760;2022-12-16T09:50:27;101012.63;;;-7.08;100.00
70015;BME280;57358;51.094;6.760;2022-12-16T09:53:18;100989.56;;;-7.13;100.00
70015;BME280;57358;51.094;6.760;2022-12-16T09:56:08;101031.97;;;-6.82;100.00
70015;BME280;57358;51.094;6.760;2022-12-16T09:59:00;101034.88;;;-6.66;100.00
70015;BME280;57358;51.094;6.760;2022-12-16T10:01:46;100986.06;;;-6.80;100.00
70015;BME280;57358;51.094;6.760;2022-12-16T10:04:32;101003.50;;;-6.62;100.00
70015;BME280;57358;51.094;6.760;2022-12-16T10:07:21;101030.50;;;-6.34;100.00
70015;BME280;57358;51.094;6.760;2022-12-16T10:10:32;101053.47;;;-5.96;100.00
70015;BME280;57358;51.094;6.760;2022-12-16T10:13:45;100998.88;;;-5.99;100.00
70015;BME280;57358;51.094;6.760;2022-12-16T10:22:34;101020.84;;;-5.64;100.00
70015;BME280;57358;51.094;6.760;2022-12-16T10:25:27;100994.38;;;-5.66;100.00
70015;BME280;57358;51.094;6.760;2022-12-16T10:28:49;101083.28;;;-5.07;100.00
70015;BME280;57358;51.094;6.760;2022-12-16T10:31:36;100914.66;;;-5.95;100.00
70015;BME280;57358;51.094;6.760;2022-12-16T10:34:28;101080.22;;;-4.86;100.00
70015;BME280;57358;51.094;6.760;2022-12-16T10:37:15;101017.97;;;-5.35;100.00
70015;BME280;57358;51.094;6.760;2022-12-16T10:40:03;101102.84;;;-5.10;100.00
70015;BME280;57358;51.094;6.760;2022-12-16T10:43:01;101056.28;;;-5.38;100.00
70015;BME280;57358;51.094;6.760;2022-12-16T10:45:50;100997.72;;;-5.70;100.00
70015;BME280;57358;51.094;6.760;2022-12-16T10:48:37;101099.50;;;-5.06;100.00
70015;BME280;57358;51.094;6.760;2022-12-16T10:51:25;101102.16;;;-5.00;100.00
70015;BME280;57358;51.094;6.760;2022-12-16T10:54:32;101100.59;;;-4.92;100.00
70015;BME280;57358;51.094;6.760;2022-12-16T10:57:55;101097.56;;;-4.69;100.00
70015;BME280;57358;51.094;6.760;2022-12-16T11:00:48;101093.50;;;-4.58;100.00
70015;BME280;57358;51.094;6.760;2022-12-16T11:03:36;101081.69;;;-4.48;100.00
70015;BME280;57358;51.094;6.760;2022-12-16T11:09:28;101106.25;;;-4.06;100.00
70015;BME280;57358;51.094;6.760;2022-12-16T11:18:19;101099.22;;;-4.18;100.00
70015;BME280;57358;51.094;6.760;2022-12-16T11:21:17;101109.06;;;-3.88;100.00
70015;BME280;57358;51.094;6.760;2022-12-16T11:24:13;101115.88;;;-3.88;100.00
70015;BME280;57358;51.094;6.760;2022-12-16T11:27:01;101078.16;;;-3.97;100.00
70015;BME280;57358;51.094;6.760;2022-12-16T11:29:53;101125.19;;;-3.95;100.00
70015;BME280;57358;51.094;6.760;2022-12-16T11:32:44;101121.44;;;-4.17;100.00
70015;BME280;57358;51.094;6.760;2022-12-16T11:35:32;101061.31;;;-4.39;100.00
70015;BME280;57358;51.094;6.760;2022-12-16T11:38:25;101120.94;;;-3.94;100.00
70015;BME280;57358;51.094;6.760;2022-12-16T11:41:21;101029.84;;;-4.32;100.00
70015;BME280;57358;51.094;6.760;2022-12-16T11:44:14;101123.88;;;-3.67;100.00
70015;BME280;57358;51.094;6.760;2022-12-16T11:47:02;100947.63;;;-4.50;100.00
70015;BME280;57358;51.094;6.760;2022-12-16T11:49:50;101118.63;;;-3.76;100.00
70015;BME280;57358;51.094;6.760;2022-12-16T11:52:35;101090.16;;;-3.96;100.00
70015;BME280;57358;51.094;6.760;2022-12-16T11:55:34;101019.63;;;-4.30;100.00
70015;BME280;57358;51.094;6.760;2022-12-16T11:58:44;101105.03;;;-3.69;100.00
70015;BME280;57358;51.094;6.760;2022-12-16T12:01:34;101067.19;;;-3.85;100.00
70015;BME280;57358;51.094;6.760;2022-12-16T12:04:21;101058.53;;;-3.93;100.00
70015;BME280;57358;51.094;6.760;2022-12-16T12:13:10;101132.75;;;-3.40;100.00
70015;BME280;57358;51.094;6.760;2022-12-16T12:16:14;101134.59;;;-3.28;100.00
70015;BME280;57358;51.094;6.760;2022-12-16T12:19:12;101112.34;;;-3.28;100.00
70015;BME280;57358;51.094;6.760;2022-12-16T12:22:36;101126.19;;;-3.16;100.00
70015;BME280;57358;51.094;6.760;2022-12-16T12:25:28;101120.25;;;-3.09;100.00
70015;BME280;57358;51.094;6.760;2022-12-16T12:28:27;101063.47;;;-3.37;100.00
70015;BME280;57358;51.094;6.760;2022-12-16T12:31:34;101076.38;;;-3.34;100.00
70015;BME280;57358;51.094;6.760;2022-12-16T12:34:40;101073.84;;;-3.28;100.00
70015;BME280;57358;51.094;6.760;2022-12-16T12:37:45;101122.19;;;-2.87;100.00
70015;BME280;57358;51.094;6.760;2022-12-16T12:46:57;101116.88;;;-3.05;100.00
70015;BME280;57358;51.094;6.760;2022-12-16T12:49:52;101132.31;;;-3.02;100.00
70015;BME280;57358;51.094;6.760;2022-12-16T12:58:45;101083.41;;;-3.16;100.00
70015;BME280;57358;51.094;6.760;2022-12-16T13:01:33;101052.44;;;-3.31;100.00
70015;BME280;57358;51.094;6.760;2022-12-16T13:04:22;101067.22;;;-3.07;100.00
70015;BME280;57358;51.094;6.760;2022-12-16T13:07:08;101083.53;;;-3.02;100.00
70015;BME280;57358;51.094;6.760;2022-12-16T13:16:03;101123.19;;;-2.74;100.00
70015;BME280;57358;51.094;6.760;2022-12-16T13:22:30;101119.69;;;-2.82;100.00
70015;BME280;57358;51.094;6.760;2022-12-16T13:25:40;101132.59;;;-2.74;100.00
70015;BME280;57358;51.094;6.760;2022-12-16T13:28:32;101098.00;;;-3.10;100.00
70015;BME280;57358;51.094;6.760;2022-12-16T13:31:18;101146.19;;;-2.83;100.00
70015;BME280;57358;51.094;6.760;2022-12-16T13:34:27;101124.69;;;-2.94;100.00
70015;BME280;57358;51.094;6.760;2022-12-16T13:37:23;101149.66;;;-2.83;100.00
70015;BME280;57358;51.094;6.760;2022-12-16T13:40:22;101106.53;;;-3.14;100.00
70015;BME280;57358;51.094;6.760;2022-12-16T13:43:44;101158.16;;;-2.85;100.00
70015;BME280;57358;51.094;6.760;2022-12-16T13:46:43;101153.91;;;-2.82;100.00
70015;BME280;57358;51.094;6.760;2022-12-16T13:52:43;101147.94;;;-2.82;100.00
70015;BME280;57358;51.094;6.760;2022-12-16T13:55:38;101164.25;;;-2.75;100.00
70015;BME280;57358;51.094;6.760;2022-12-16T13:58:31;101158.25;;;-2.76;100.00
70015;BME280;57358;51.094;6.760;2022-12-16T14:04:36;101038.44;;;-3.59;100.00
70015;BME280;57358;51.094;6.760;2022-12-16T14:07:24;101094.34;;;-3.31;100.00
70015;BME280;57358;51.094;6.760;2022-12-16T14:10:28;101098.75;;;-3.21;100.00
70015;BME280;57358;51.094;6.760;2022-12-16T14:13:32;101119.47;;;-3.04;100.00
70015;BME280;57358;51.094;6.760;2022-12-16T14:19:31;101079.66;;;-3.46;100.00
70015;BME280;57358;51.094;6.760;2022-12-16T14:25:19;101192.28;;;-2.95;100.00
70015;BME280;57358;51.094;6.760;2022-12-16T14:28:22;101094.13;;;-3.51;100.00
70015;BME280;57358;51.094;6.760;2022-12-16T14:34:01;101087.88;;;-3.74;100.00
70015;BME280;57358;51.094;6.760;2022-12-16T14:36:46;101089.56;;;-3.73;100.00
70015;BME280;57358;51.094;6.760;2022-12-16T14:39:39;101203.38;;;-2.99;100.00
70015;BME280;57358;51.094;6.760;2022-12-16T14:42:26;101204.13;;;-3.10;100.00
70015;BME280;57358;51.094;6.760;2022-12-16T14:45:34;101181.72;;;-3.22;100.00
70015;BME280;57358;51.094;6.760;2022-12-16T14:51:16;101216.16;;;-3.06;100.00
70015;BME280;57358;51.094;6.760;2022-12-16T14:56:58;101056.63;;;-4.10;100.00
70015;BME280;57358;51.094;6.760;2022-12-16T14:59:43;101222.13;;;-3.05;100.00
70015;BME280;57358;51.094;6.760;2022-12-16T15:02:39;101153.94;;;-3.53;100.00
70015;BME280;57358;51.094;6.760;2022-12-16T15:05:32;101178.09;;;-3.41;100.00
70015;BME280;57358;51.094;6.760;2022-12-16T15:08:19;101112.56;;;-3.79;100.00
70015;BME280;57358;51.094;6.760;2022-12-16T15:11:07;101107.44;;;-3.79;100.00
70015;BME280;57358;51.094;6.760;2022-12-16T15:13:57;101164.28;;;-3.49;100.00
70015;BME280;57358;51.094;6.760;2022-12-16T15:16:43;101172.91;;;-3.42;100.00
70015;BME280;57358;51.094;6.760;2022-12-16T15:19:36;101209.06;;;-3.27;100.00
70015;BME280;57358;51.094;6.760;2022-12-16T15:22:28;101246.19;;;-3.00;100.00
70015;BME280;57358;51.094;6.760;2022-12-16T15:25:21;101250.44;;;-2.99;100.00
70015;BME280;57358;51.094;6.760;2022-12-16T15:28:38;101264.19;;;-2.98;100.00
70015;BME280;57358;51.094;6.760;2022-12-16T15:31:25;101270.16;;;-2.98;100.00
70015;BME280;57358;51.094;6.760;2022-12-16T15:34:23;101270.19;;;-2.96;100.00
70015;BME280;57358;51.094;6.760;2022-12-16T15:37:19;101271.00;;;-2.99;100.00
70015;BME280;57358;51.094;6.760;2022-12-16T15:40:25;101274.47;;;-2.95;100.00
70015;BME280;57358;51.094;6.760;2022-12-16T15:43:31;101202.84;;;-3.41;100.00